Time;durP1;ratioP1;P1;durP2;ratioP2;P2;SDS_P1;SDS_P2;PMS_P1;PMS_P2;Temp;Humidity;BMP_temperature;BMP_pressure;BME280_temperature;BME280_humidity;BME280_pressure;Samples;Min_cycle;Max_cycle;Signal;HPM_P1;HPM_P2
2022/03/04 00:00:06;;;;;;;80.83;15.67;;;-0.70;99.90;;;;;;4982281;28;20235;-75
2022/03/04 00:02:38;;;;;;;94.73;16.60;;;-0.60;99.90;;;;;;4979562;28;20232;-75
2022/03/04 00:05:06;;;;;;;238.80;26.40;;;-0.60;99.90;;;;;;4975778;28;20222;-75
2022/03/04 00:07:33;;;;;;;235.80;23.23;;;-0.60;99.90;;;;;;4971674;28;20223;-74
2022/03/04 00:10:01;;;;;;;118.93;17.20;;;-0.50;99.90;;;;;;4979783;28;20236;-74
2022/03/04 00:12:28;;;;;;;57.40;14.80;;;-0.50;99.90;;;;;;4974800;28;21035;-74
2022/03/04 00:14:56;;;;;;;111.87;16.57;;;-0.50;99.90;;;;;;4978830;28;20235;-75
2022/03/04 00:17:23;;;;;;;122.33;17.90;;;-0.50;99.90;;;;;;4987807;28;20238;-75
2022/03/04 00:19:50;;;;;;;125.83;18.70;;;-0.40;99.90;;;;;;4982523;28;20862;-75
2022/03/04 00:22:16;;;;;;;79.77;15.67;;;-0.40;99.90;;;;;;4982160;28;20237;-75
2022/03/04 00:24:43;;;;;;;43.90;13.67;;;-0.40;99.90;;;;;;4981782;28;20280;-75
2022/03/04 00:27:10;;;;;;;61.57;14.33;;;-0.40;99.90;;;;;;4979178;28;20226;-76
2022/03/04 00:29:37;;;;;;;62.27;14.97;;;-0.30;99.90;;;;;;4976445;28;20726;-76
2022/03/04 00:32:05;;;;;;;69.87;14.63;;;-0.30;99.90;;;;;;4979789;28;20768;-75
2022/03/04 00:34:32;;;;;;;139.43;17.67;;;-0.30;99.90;;;;;;4961559;28;20229;-75
2022/03/04 00:36:59;;;;;;;101.67;17.00;;;-0.30;99.90;;;;;;4953984;28;20226;-75
2022/03/04 00:39:25;;;;;;;102.70;17.37;;;-0.30;99.90;;;;;;4956960;28;20247;-75
2022/03/04 00:41:52;;;;;;;62.90;14.97;;;-0.30;99.90;;;;;;4956046;28;20249;-75
2022/03/04 00:44:18;;;;;;;43.47;14.83;;;-0.30;99.90;;;;;;4956025;28;20235;-75
2022/03/04 00:46:45;;;;;;;58.63;14.90;;;-0.20;99.90;;;;;;4956376;28;20712;-75
2022/03/04 00:49:13;;;;;;;84.17;16.40;;;-0.20;99.90;;;;;;4951715;28;20590;-75
2022/03/04 00:51:40;;;;;;;62.50;15.13;;;-0.20;99.90;;;;;;4957658;28;20699;-76
2022/03/04 00:54:07;;;;;;;77.27;15.20;;;-0.20;99.90;;;;;;4936082;28;20228;-76
2022/03/04 00:56:33;;;;;;;74.30;16.20;;;-0.20;99.90;;;;;;4942359;28;20220;-75
2022/03/04 00:59:00;;;;;;;70.70;15.67;;;-0.20;99.90;;;;;;4955710;28;20235;-75
2022/03/04 01:01:27;;;;;;;103.47;16.63;;;-0.20;99.90;;;;;;4953574;28;20343;-75
2022/03/04 01:03:53;;;;;;;164.50;19.40;;;-0.20;99.90;;;;;;4937613;28;20228;-75
2022/03/04 01:06:22;;;;;;;82.83;16.10;;;-0.20;99.90;;;;;;4957118;28;20219;-75
2022/03/04 01:08:48;;;;;;;63.80;15.23;;;-0.20;99.90;;;;;;4941740;28;20235;-76
2022/03/04 01:11:15;;;;;;;52.87;14.90;;;-0.30;99.90;;;;;;4952799;28;20225;-77
2022/03/04 01:13:42;;;;;;;292.53;25.43;;;-0.20;99.90;;;;;;4961684;28;21093;-77
2022/03/04 01:16:08;;;;;;;128.47;18.43;;;-0.30;99.90;;;;;;4959763;28;20237;-76
2022/03/04 01:18:35;;;;;;;71.33;14.43;;;-0.20;99.90;;;;;;4954825;28;20684;-76
2022/03/04 01:21:02;;;;;;;105.17;17.47;;;-0.20;99.90;;;;;;4959650;28;20744;-76
2022/03/04 01:23:30;;;;;;;64.67;15.97;;;-0.20;99.90;;;;;;4948843;28;20235;-76
2022/03/04 01:25:57;;;;;;;59.13;16.20;;;-0.20;99.90;;;;;;4938767;28;20242;-76
2022/03/04 01:28:24;;;;;;;83.93;16.77;;;-0.10;99.90;;;;;;4947723;28;20216;-75
2022/03/04 01:30:51;;;;;;;153.00;19.90;;;-0.10;99.90;;;;;;4951873;28;20687;-75
2022/03/04 01:33:17;;;;;;;108.83;17.23;;;-0.10;99.90;;;;;;4948735;28;20262;-76
2022/03/04 01:35:44;;;;;;;68.73;16.80;;;0.00;99.90;;;;;;4960042;28;20246;-76
2022/03/04 01:38:11;;;;;;;68.63;14.80;;;0.00;99.90;;;;;;4939395;28;20231;-76
2022/03/04 01:40:40;;;;;;;112.20;17.80;;;0.00;99.90;;;;;;4938820;28;20227;-76
2022/03/04 01:43:06;;;;;;;70.43;15.70;;;0.00;99.90;;;;;;4951659;28;20224;-76
2022/03/04 01:45:33;;;;;;;69.03;14.40;;;0.00;99.90;;;;;;4939514;28;20597;-76
2022/03/04 01:48:00;;;;;;;50.77;14.43;;;0.00;99.90;;;;;;4935249;28;20235;-76
2022/03/04 01:50:28;;;;;;;71.33;15.67;;;0.00;99.90;;;;;;4955638;28;20315;-77
2022/03/04 01:52:54;;;;;;;79.50;15.70;;;0.00;99.90;;;;;;4939992;28;20227;-77
2022/03/04 01:55:21;;;;;;;119.47;17.03;;;0.00;99.90;;;;;;4952654;28;20232;-77
2022/03/04 01:57:49;;;;;;;72.63;14.73;;;0.00;99.90;;;;;;4958200;28;20269;-78
2022/03/04 02:00:17;;;;;;;94.33;15.90;;;-0.10;99.90;;;;;;4941067;28;20235;-77
2022/03/04 02:02:45;;;;;;;59.87;14.20;;;-0.10;99.90;;;;;;4957133;28;20239;-77
2022/03/04 02:05:13;;;;;;;169.33;20.03;;;-0.20;99.90;;;;;;4941956;28;20231;-77
2022/03/04 02:07:39;;;;;;;183.90;18.97;;;-0.20;99.90;;;;;;4955682;28;20238;-76
2022/03/04 02:10:08;;;;;;;60.70;14.30;;;-0.20;99.90;;;;;;4936344;28;20937;-76
2022/03/04 02:12:36;;;;;;;113.50;18.10;;;-0.20;99.90;;;;;;4954647;28;20620;-77
2022/03/04 02:15:05;;;;;;;89.10;15.00;;;-0.20;99.90;;;;;;4958425;28;20247;-78
2022/03/04 02:17:32;;;;;;;68.67;13.30;;;-0.20;99.90;;;;;;4961650;28;20235;-76
2022/03/04 02:19:59;;;;;;;162.03;18.87;;;-0.30;99.90;;;;;;4982498;28;20224;-77
2022/03/04 02:22:28;;;;;;;41.80;12.40;;;-0.20;99.90;;;;;;4960411;28;20229;-77
2022/03/04 02:24:54;;;;;;;99.93;15.13;;;-0.20;99.90;;;;;;4983519;28;20425;-76
2022/03/04 02:27:21;;;;;;;44.63;11.53;;;-0.20;99.90;;;;;;4975842;28;20231;-76
2022/03/04 02:29:48;;;;;;;68.23;12.10;;;-0.20;99.90;;;;;;4982384;28;20231;-76
2022/03/04 02:32:15;;;;;;;45.80;11.80;;;-0.20;99.90;;;;;;4976398;28;20228;-76
2022/03/04 02:34:41;;;;;;;193.77;18.30;;;-0.10;99.90;;;;;;4987939;28;20230;-76
2022/03/04 02:37:09;;;;;;;40.97;12.03;;;-0.10;99.90;;;;;;4982216;28;20214;-76
2022/03/04 02:39:37;;;;;;;230.37;21.00;;;-0.10;99.90;;;;;;4982014;28;20241;-77
2022/03/04 02:42:04;;;;;;;51.87;12.93;;;-0.10;99.90;;;;;;4985631;28;20229;-77
2022/03/04 02:44:31;;;;;;;63.33;12.90;;;-0.10;99.90;;;;;;4987504;28;20246;-77
2022/03/04 02:46:57;;;;;;;62.17;12.90;;;-0.20;99.90;;;;;;4987383;28;20231;-76
2022/03/04 02:49:24;;;;;;;99.43;15.07;;;-0.20;99.90;;;;;;4981375;28;20230;-77
2022/03/04 02:51:51;;;;;;;58.27;11.97;;;-0.20;99.90;;;;;;4984140;28;20231;-76
2022/03/04 02:54:17;;;;;;;75.67;11.97;;;-0.30;99.90;;;;;;4979170;28;20253;-76
2022/03/04 02:56:46;;;;;;;74.57;12.57;;;-0.30;99.90;;;;;;4981444;28;20250;-77
2022/03/04 02:59:13;;;;;;;161.10;17.20;;;-0.30;99.90;;;;;;4980391;28;20241;-78
2022/03/04 03:01:40;;;;;;;51.13;11.13;;;-0.40;99.90;;;;;;4994361;28;20230;-77
2022/03/04 03:04:07;;;;;;;132.20;15.50;;;-0.40;99.90;;;;;;4989321;28;20217;-77
2022/03/04 03:06:35;;;;;;;49.17;11.53;;;-0.50;99.90;;;;;;4991237;28;20241;-77
2022/03/04 03:09:01;;;;;;;72.10;13.57;;;-0.50;99.90;;;;;;4985629;28;20326;-77
2022/03/04 03:11:28;;;;;;;53.23;10.47;;;-0.50;99.90;;;;;;4984733;28;20895;-78
2022/03/04 03:13:56;;;;;;;57.27;10.93;;;-0.60;99.90;;;;;;4982901;28;20884;-77
2022/03/04 03:16:23;;;;;;;82.77;12.60;;;-0.60;99.90;;;;;;4982522;28;20221;-77
2022/03/04 03:18:49;;;;;;;72.33;11.53;;;-0.70;99.90;;;;;;4985198;28;20225;-76
2022/03/04 03:21:16;;;;;;;47.37;10.27;;;-0.70;99.90;;;;;;4988069;28;20867;-76
2022/03/04 03:23:43;;;;;;;72.07;12.57;;;-0.70;99.90;;;;;;4983963;28;20232;-77
2022/03/04 03:26:10;;;;;;;525.37;40.73;;;-0.70;99.90;;;;;;4985070;28;20319;-77
2022/03/04 03:28:36;;;;;;;77.73;12.23;;;-0.70;99.90;;;;;;4977076;28;20769;-77
2022/03/04 03:31:04;;;;;;;50.30;11.97;;;-0.60;99.90;;;;;;4983594;28;20234;-77
2022/03/04 03:33:31;;;;;;;62.90;12.80;;;-0.70;99.90;;;;;;4973958;28;20240;-77
2022/03/04 03:35:58;;;;;;;75.80;11.50;;;-0.60;99.90;;;;;;4977447;28;20249;-76
2022/03/04 03:38:25;;;;;;;50.53;11.03;;;-0.70;99.90;;;;;;4984502;28;20237;-77
2022/03/04 03:40:52;;;;;;;38.20;10.70;;;-0.60;99.90;;;;;;4985061;28;20232;-77
2022/03/04 03:43:19;;;;;;;58.07;11.30;;;-0.60;99.90;;;;;;4987615;28;20222;-77
2022/03/04 03:45:45;;;;;;;52.40;11.67;;;-0.60;99.90;;;;;;4979762;28;20238;-77
2022/03/04 03:48:14;;;;;;;43.03;10.73;;;-0.60;99.90;;;;;;4978130;28;20656;-77
2022/03/04 03:50:40;;;;;;;99.80;14.57;;;-0.50;99.90;;;;;;4988380;28;20246;-77
2022/03/04 03:53:08;;;;;;;56.37;10.17;;;-0.50;99.90;;;;;;4996662;28;20225;-78
2022/03/04 03:55:35;;;;;;;33.90;8.67;;;-0.60;99.90;;;;;;4989174;28;21055;-77
2022/03/04 03:58:01;;;;;;;65.47;11.27;;;-0.50;99.90;;;;;;4989829;28;20316;-76
2022/03/04 04:00:28;;;;;;;56.80;11.40;;;-0.50;99.90;;;;;;4982968;28;20665;-77
2022/03/04 04:02:55;;;;;;;64.77;12.07;;;-0.50;99.90;;;;;;4982799;28;20237;-77
2022/03/04 04:05:23;;;;;;;34.83;10.13;;;-0.50;99.90;;;;;;4985771;28;20230;-77
2022/03/04 04:07:50;;;;;;;35.47;10.57;;;-0.60;99.90;;;;;;4980049;28;20237;-77
2022/03/04 04:10:16;;;;;;;34.27;10.97;;;-0.60;99.90;;;;;;4983700;28;20237;-77
2022/03/04 04:12:43;;;;;;;68.00;13.00;;;-0.60;99.90;;;;;;4981812;28;20223;-77
2022/03/04 04:15:10;;;;;;;64.13;11.83;;;-0.50;99.90;;;;;;4983194;28;20251;-77
2022/03/04 04:17:37;;;;;;;133.50;15.53;;;-0.50;99.90;;;;;;4986807;28;20322;-77
2022/03/04 04:20:04;;;;;;;411.83;32.43;;;-0.50;99.90;;;;;;4985600;28;20226;-77
2022/03/04 04:22:32;;;;;;;72.90;12.50;;;-0.50;99.90;;;;;;4984350;28;20288;-77
2022/03/04 04:24:59;;;;;;;63.27;12.43;;;-0.50;99.90;;;;;;4980150;28;20724;-77
2022/03/04 04:27:25;;;;;;;52.47;10.53;;;-0.60;99.90;;;;;;4982503;28;20231;-77
2022/03/04 04:29:52;;;;;;;152.50;15.77;;;-0.60;99.90;;;;;;4987911;28;20232;-77
2022/03/04 04:32:19;;;;;;;54.63;10.97;;;-0.60;99.90;;;;;;4983038;28;20230;-77
2022/03/04 04:34:45;;;;;;;239.10;21.83;;;-0.60;99.90;;;;;;4986880;28;20493;-77
2022/03/04 04:37:12;;;;;;;96.47;13.63;;;-0.70;99.90;;;;;;4978838;28;20421;-77
2022/03/04 04:39:40;;;;;;;123.47;14.43;;;-0.70;99.90;;;;;;4986118;28;20661;-77
2022/03/04 04:42:07;;;;;;;71.93;12.63;;;-0.70;99.90;;;;;;4986867;28;20249;-76
2022/03/04 04:44:33;;;;;;;167.90;17.43;;;-0.70;99.90;;;;;;4987794;28;20308;-75
2022/03/04 04:47:00;;;;;;;77.10;12.63;;;-0.70;99.90;;;;;;4979890;28;20230;-75
2022/03/04 04:49:27;;;;;;;93.27;12.67;;;-0.70;99.90;;;;;;4977933;28;20233;-75
2022/03/04 04:51:54;;;;;;;92.97;13.63;;;-0.70;99.90;;;;;;4989468;28;20225;-75
2022/03/04 04:54:20;;;;;;;48.37;10.60;;;-0.70;99.90;;;;;;4978692;28;20251;-76
2022/03/04 04:56:48;;;;;;;50.70;10.10;;;-0.70;99.90;;;;;;4976629;28;20223;-75
2022/03/04 04:59:15;;;;;;;90.83;12.13;;;-0.70;99.90;;;;;;4982367;28;20831;-75
2022/03/04 05:01:43;;;;;;;96.30;11.87;;;-0.70;99.90;;;;;;4989470;28;20238;-76
2022/03/04 05:04:10;;;;;;;322.57;25.20;;;-0.70;99.90;;;;;;4976521;28;20854;-76
2022/03/04 05:06:36;;;;;;;74.97;11.23;;;-0.80;99.90;;;;;;4985428;28;20239;-76
2022/03/04 05:09:03;;;;;;;49.53;10.30;;;-0.80;99.90;;;;;;4982812;28;20232;-77
2022/03/04 05:11:30;;;;;;;35.20;9.33;;;-0.80;99.90;;;;;;4979315;28;20810;-76
2022/03/04 05:13:58;;;;;;;45.87;9.60;;;-0.90;99.90;;;;;;4981653;28;20239;-77
2022/03/04 05:16:24;;;;;;;64.90;10.83;;;-0.90;99.90;;;;;;4980603;28;20224;-77
2022/03/04 05:18:51;;;;;;;73.27;10.47;;;-0.90;99.90;;;;;;4983728;28;20222;-77
2022/03/04 05:21:18;;;;;;;54.60;9.60;;;-1.00;99.90;;;;;;4988814;28;20340;-76
2022/03/04 05:23:59;;;;;;;153.93;14.70;;;-1.00;99.90;;;;;;4984649;28;20230;-76
2022/03/04 05:26:26;;;;;;;161.17;16.70;;;-0.90;99.90;;;;;;4979576;28;20237;-76
2022/03/04 05:28:54;;;;;;;323.30;25.03;;;-1.00;99.90;;;;;;4983667;28;20233;-76
2022/03/04 05:31:22;;;;;;;59.37;9.83;;;-1.00;99.90;;;;;;4979600;28;20606;-78
2022/03/04 05:33:48;;;;;;;32.20;9.97;;;-1.00;99.90;;;;;;4979611;28;20857;-79
2022/03/04 05:36:16;;;;;;;243.27;19.87;;;-1.00;99.90;;;;;;4981406;28;20229;-78
2022/03/04 05:38:42;;;;;;;75.10;12.07;;;-1.00;99.90;;;;;;4986712;28;20309;-78
2022/03/04 05:41:09;;;;;;;54.53;9.47;;;-1.00;99.90;;;;;;4980246;28;20240;-79
2022/03/04 05:43:36;;;;;;;210.97;20.13;;;-1.00;99.90;;;;;;4985233;28;20222;-79
2022/03/04 05:46:02;;;;;;;29.43;8.40;;;-1.00;99.90;;;;;;4985052;28;20233;-79
2022/03/04 05:48:30;;;;;;;96.87;12.83;;;-1.00;99.90;;;;;;4975156;28;20238;-78
2022/03/04 05:50:57;;;;;;;68.77;10.73;;;-1.10;99.90;;;;;;4986320;28;20236;-79
2022/03/04 05:53:24;;;;;;;144.37;15.70;;;-1.10;99.90;;;;;;4981955;28;20221;-80
2022/03/04 05:55:52;;;;;;;179.53;16.50;;;-1.20;99.90;;;;;;4992497;28;20244;-80
2022/03/04 05:58:18;;;;;;;667.03;47.93;;;-1.20;99.90;;;;;;4990241;28;20713;-80
2022/03/04 06:00:45;;;;;;;161.37;17.60;;;-1.20;99.90;;;;;;4986284;28;20243;-80
2022/03/04 06:03:12;;;;;;;215.27;17.77;;;-1.20;99.90;;;;;;4979139;28;20232;-80
2022/03/04 06:05:40;;;;;;;59.50;10.43;;;-1.30;99.90;;;;;;4979572;28;20226;-81
2022/03/04 06:08:06;;;;;;;127.73;14.07;;;-1.30;99.90;;;;;;4997188;28;20237;-81
2022/03/04 06:10:33;;;;;;;74.10;11.20;;;-1.30;99.90;;;;;;4985796;28;20233;-80
2022/03/04 06:13:00;;;;;;;62.93;11.40;;;-1.30;99.90;;;;;;4976614;28;20252;-80
2022/03/04 06:15:26;;;;;;;42.67;9.70;;;-1.30;99.90;;;;;;4986748;28;20263;-80
2022/03/04 06:17:54;;;;;;;77.07;11.70;;;-1.30;99.90;;;;;;4982032;28;20916;-80
2022/03/04 06:20:21;;;;;;;291.00;22.00;;;-1.30;99.90;;;;;;4975800;28;20263;-79
2022/03/04 06:22:49;;;;;;;64.87;10.80;;;-1.30;99.90;;;;;;4988691;28;20240;-80
2022/03/04 06:25:16;;;;;;;70.57;10.97;;;-1.30;99.90;;;;;;4982488;28;20226;-79
2022/03/04 06:27:52;;;;;;;208.83;17.73;;;-1.30;99.90;;;;;;4984431;28;21015;-79
2022/03/04 06:30:19;;;;;;;338.83;29.37;;;-1.30;99.90;;;;;;4978365;28;20724;-79
2022/03/04 06:32:46;;;;;;;55.97;10.40;;;-1.30;99.90;;;;;;4985699;28;20349;-80
2022/03/04 06:35:13;;;;;;;128.10;13.13;;;-1.30;99.90;;;;;;4986982;28;20222;-80
2022/03/04 06:37:40;;;;;;;406.87;31.10;;;-1.20;99.90;;;;;;4984202;28;20232;-80
2022/03/04 06:40:09;;;;;;;116.17;14.67;;;-1.20;99.90;;;;;;4992724;28;20237;-80
2022/03/04 06:42:36;;;;;;;122.50;14.40;;;-1.20;99.90;;;;;;4985057;28;20226;-80
2022/03/04 06:45:02;;;;;;;91.37;12.20;;;-1.10;99.90;;;;;;4991775;28;20641;-80
2022/03/04 06:47:29;;;;;;;36.43;9.13;;;-1.10;99.90;;;;;;4991283;28;20268;-80
2022/03/04 06:49:56;;;;;;;40.97;8.40;;;-1.10;99.90;;;;;;4987003;28;20256;-80
2022/03/04 06:52:23;;;;;;;264.57;21.10;;;-1.00;99.90;;;;;;4988790;28;20229;-80
2022/03/04 06:54:49;;;;;;;66.70;10.80;;;-1.00;99.90;;;;;;4983502;28;20309;-80
2022/03/04 06:57:17;;;;;;;309.77;23.20;;;-1.00;99.90;;;;;;4982463;28;20275;-80
2022/03/04 06:59:44;;;;;;;85.90;11.83;;;-1.00;99.90;;;;;;4987289;28;20325;-80
2022/03/04 07:02:12;;;;;;;63.67;10.00;;;-1.10;99.90;;;;;;4993511;28;20237;-80
2022/03/04 07:04:38;;;;;;;53.27;9.10;;;-1.10;99.90;;;;;;4987717;28;20873;-80
2022/03/04 07:07:05;;;;;;;183.50;15.70;;;-1.10;99.90;;;;;;4980293;28;20228;-80
2022/03/04 07:09:32;;;;;;;46.60;8.60;;;-1.00;99.90;;;;;;4977159;28;20285;-80
2022/03/04 07:11:58;;;;;;;95.23;12.03;;;-1.00;99.90;;;;;;4981922;28;20225;-80
2022/03/04 07:14:27;;;;;;;53.13;9.80;;;-1.00;99.90;;;;;;4981541;28;20247;-80
2022/03/04 07:16:54;;;;;;;27.30;8.37;;;-0.90;99.90;;;;;;5005135;28;20236;-80
2022/03/04 07:19:21;;;;;;;54.50;10.63;;;-0.90;99.90;;;;;;4992026;28;20264;-80
2022/03/04 07:21:47;;;;;;;104.37;11.77;;;-0.90;99.90;;;;;;4993618;28;20237;-80
2022/03/04 07:24:15;;;;;;;42.17;8.97;;;-0.80;99.90;;;;;;4994057;28;20243;-80
2022/03/04 07:26:42;;;;;;;39.67;8.60;;;-0.80;99.90;;;;;;4979334;28;20225;-79
2022/03/04 07:29:09;;;;;;;51.57;9.30;;;-0.70;99.90;;;;;;4975680;28;20229;-80
2022/03/04 07:31:37;;;;;;;36.97;9.60;;;-0.70;99.90;;;;;;4974857;28;20250;-80
2022/03/04 07:34:04;;;;;;;25.83;7.93;;;-0.60;99.90;;;;;;4980853;28;20623;-80
2022/03/04 07:36:30;;;;;;;36.00;7.87;;;-0.60;99.90;;;;;;4979202;28;20227;-80
2022/03/04 07:38:57;;;;;;;16.80;7.00;;;-0.50;99.90;;;;;;4987832;28;20221;-80
2022/03/04 07:41:24;;;;;;;49.10;8.67;;;-0.40;99.90;;;;;;4991193;28;20304;-80
2022/03/04 07:43:51;;;;;;;27.23;7.60;;;-0.40;99.90;;;;;;4990350;28;20234;-80
2022/03/04 07:46:19;;;;;;;39.00;7.77;;;-0.30;99.90;;;;;;4980363;28;20231;-80
2022/03/04 07:48:47;;;;;;;26.47;7.10;;;-0.20;99.90;;;;;;4983446;28;20320;-80
2022/03/04 07:51:13;;;;;;;16.50;6.63;;;-0.10;99.90;;;;;;4988102;28;20924;-81
2022/03/04 07:53:40;;;;;;;14.40;6.30;;;0.00;99.90;;;;;;4990679;28;20709;-80
2022/03/04 07:56:07;;;;;;;11.33;6.00;;;0.00;99.90;;;;;;4991890;28;20363;-78
2022/03/04 07:58:33;;;;;;;27.87;7.53;;;0.10;99.90;;;;;;4985837;28;20233;-79
2022/03/04 08:01:00;;;;;;;69.93;9.90;;;0.20;99.90;;;;;;4981523;28;20245;-76
2022/03/04 08:03:27;;;;;;;20.70;6.60;;;0.20;99.90;;;;;;4979746;28;20238;-76
2022/03/04 08:05:55;;;;;;;18.80;6.47;;;0.30;99.90;;;;;;4983947;28;20224;-75
2022/03/04 08:08:22;;;;;;;33.47;6.50;;;0.40;99.90;;;;;;4987650;28;20704;-75
2022/03/04 08:10:49;;;;;;;24.30;7.07;;;0.40;99.90;;;;;;4984784;28;20902;-76
2022/03/04 08:13:16;;;;;;;138.57;11.87;;;0.50;99.90;;;;;;4978667;28;20790;-75
2022/03/04 08:15:43;;;;;;;57.17;8.00;;;0.60;99.90;;;;;;4993232;28;20226;-75
2022/03/04 08:18:10;;;;;;;38.37;7.33;;;0.70;99.90;;;;;;4970897;28;21100;-75
2022/03/04 08:20:37;;;;;;;39.47;9.03;;;0.70;99.90;;;;;;4987604;28;20240;-75
2022/03/04 08:23:05;;;;;;;14.33;6.80;;;0.80;99.90;;;;;;4972931;28;20230;-75
2022/03/04 08:25:32;;;;;;;14.93;6.40;;;0.80;99.90;;;;;;4982321;28;20234;-74
2022/03/04 08:27:59;;;;;;;76.67;9.30;;;0.80;99.90;;;;;;4983533;28;20239;-75
2022/03/04 08:30:26;;;;;;;28.43;7.23;;;0.90;99.90;;;;;;4980326;28;20236;-75
2022/03/04 08:32:53;;;;;;;16.90;6.80;;;0.90;99.90;;;;;;4981539;28;20229;-75
2022/03/04 08:35:19;;;;;;;12.57;6.53;;;1.00;99.90;;;;;;4980714;28;20223;-74
2022/03/04 08:37:46;;;;;;;51.90;8.87;;;1.00;99.90;;;;;;4982793;28;20538;-75
2022/03/04 08:40:15;;;;;;;20.50;6.93;;;1.10;99.90;;;;;;4976912;28;20284;-75
2022/03/04 08:42:44;;;;;;;19.07;7.33;;;1.10;99.90;;;;;;4982031;28;20245;-75
2022/03/04 08:45:14;;;;;;;18.20;6.60;;;1.20;99.90;;;;;;4979748;28;20237;-75
2022/03/04 08:47:43;;;;;;;9.23;5.87;;;1.30;99.90;;;;;;4984650;28;20235;-74
2022/03/04 08:50:11;;;;;;;18.77;6.07;;;1.40;99.90;;;;;;4984605;28;20231;-75
2022/03/04 08:52:38;;;;;;;16.60;7.03;;;1.50;99.90;;;;;;4981746;28;20232;-75
2022/03/04 08:55:07;;;;;;;25.37;6.63;;;1.60;99.90;;;;;;4987911;28;20227;-75
2022/03/04 08:57:35;;;;;;;67.90;8.73;;;1.60;99.90;;;;;;4994678;28;20223;-74
2022/03/04 09:00:03;;;;;;;13.33;6.43;;;1.60;99.90;;;;;;4981715;28;20234;-75
2022/03/04 09:02:29;;;;;;;16.37;6.57;;;1.60;99.90;;;;;;4975426;28;20550;-74
2022/03/04 09:04:56;;;;;;;9.70;6.50;;;1.70;99.90;;;;;;4980355;28;20233;-75
2022/03/04 09:07:23;;;;;;;13.73;6.60;;;1.70;99.90;;;;;;4971146;28;21368;-75
2022/03/04 09:09:49;;;;;;;9.80;5.80;;;1.80;99.90;;;;;;4981688;28;20234;-75
2022/03/04 09:12:18;;;;;;;14.67;6.50;;;1.80;99.90;;;;;;4977284;28;20225;-75
2022/03/04 09:14:46;;;;;;;29.83;7.00;;;1.90;99.90;;;;;;4975615;28;20800;-77
2022/03/04 09:17:13;;;;;;;11.53;6.30;;;1.90;99.90;;;;;;4978611;28;20222;-75
2022/03/04 09:19:40;;;;;;;12.63;7.00;;;2.00;99.90;;;;;;4981185;28;20242;-75
2022/03/04 09:22:06;;;;;;;11.37;6.80;;;2.00;99.90;;;;;;4989410;28;20226;-75
2022/03/04 09:24:33;;;;;;;11.23;6.80;;;2.00;99.90;;;;;;4980468;28;20334;-75
2022/03/04 09:27:00;;;;;;;12.70;7.10;;;2.00;99.90;;;;;;4986795;28;20244;-75
2022/03/04 09:29:27;;;;;;;12.93;7.37;;;2.10;99.90;;;;;;4988382;28;20706;-75
2022/03/04 09:31:55;;;;;;;16.53;9.50;;;2.10;99.90;;;;;;4991898;28;20749;-75
2022/03/04 09:34:21;;;;;;;10.17;5.77;;;2.20;99.90;;;;;;4986881;28;20244;-75
2022/03/04 09:36:48;;;;;;;9.37;6.43;;;2.30;99.90;;;;;;4984901;28;20682;-75
2022/03/04 09:39:14;;;;;;;9.90;5.83;;;2.40;99.90;;;;;;4984374;28;20234;-75
2022/03/04 09:41:44;;;;;;;8.40;5.80;;;2.50;99.90;;;;;;4992263;28;20240;-75
2022/03/04 09:44:11;;;;;;;11.87;6.13;;;2.60;99.90;;;;;;4973526;28;20231;-77
2022/03/04 09:46:41;;;;;;;7.93;5.47;;;2.70;99.90;;;;;;4994971;28;20229;-75
2022/03/04 09:49:10;;;;;;;7.10;4.77;;;2.80;99.90;;;;;;4982093;28;20756;-75
2022/03/04 09:51:37;;;;;;;7.93;5.07;;;2.80;99.90;;;;;;4979290;28;20238;-75
2022/03/04 09:54:04;;;;;;;7.10;5.20;;;2.90;99.90;;;;;;4980025;28;20232;-75
2022/03/04 09:56:31;;;;;;;7.53;4.77;;;2.90;99.90;;;;;;4986772;28;20235;-75
2022/03/04 09:58:58;;;;;;;8.37;5.00;;;2.90;99.90;;;;;;4985589;28;20237;-75
2022/03/04 10:01:24;;;;;;;8.93;5.23;;;2.90;99.90;;;;;;4985114;28;20245;-75
2022/03/04 10:03:53;;;;;;;8.40;4.43;;;2.90;99.90;;;;;;4990596;28;20318;-75
2022/03/04 10:06:23;;;;;;;8.83;5.13;;;3.00;99.90;;;;;;4983904;28;20350;-75
2022/03/04 10:08:51;;;;;;;8.07;5.30;;;3.10;99.90;;;;;;4992949;28;20229;-75
2022/03/04 10:11:26;;;;;;;9.77;6.27;;;3.30;99.90;;;;;;4985848;28;20321;-75
2022/03/04 10:13:55;;;;;;;12.50;7.60;;;3.40;99.90;;;;;;4983112;28;20231;-75
2022/03/04 10:16:24;;;;;;;9.60;5.50;;;3.50;99.90;;;;;;4987759;28;20335;-75
2022/03/04 10:19:07;;;;;;;8.37;4.80;;;3.50;99.90;;;;;;5020110;23;20232;-75
2022/03/04 10:21:52;;;;;;;6.83;4.47;;;3.40;99.90;;;;;;5042203;28;20289;-75
2022/03/04 10:24:22;;;;;;;7.97;4.47;;;3.40;99.90;;;;;;5030828;28;20424;-78
2022/03/04 10:26:58;;;;;;;4.93;4.03;;;3.40;99.90;;;;;;5042480;28;20333;-78
2022/03/04 10:29:28;;;;;;;5.30;4.07;;;3.40;99.90;;;;;;5022146;28;20234;-78
2022/03/04 10:32:15;;;;;;;6.40;4.00;;;3.50;99.90;;;;;;5025468;28;20228;-79
2022/03/04 10:34:51;;;;;;;6.83;4.23;;;3.60;99.90;;;;;;5021680;28;20315;-79
2022/03/04 10:37:21;;;;;;;7.47;4.53;;;3.70;99.90;;;;;;5027784;28;20275;-76
2022/03/04 10:39:59;;;;;;;6.03;4.20;;;3.80;99.90;;;;;;5017332;28;20275;-78
2022/03/04 10:42:40;;;;;;;6.17;3.90;;;4.00;99.90;;;;;;5017745;28;20233;-80
2022/03/04 10:45:08;;;;;;;6.77;3.77;;;4.10;99.90;;;;;;5013132;28;20277;-78
2022/03/04 10:47:41;;;;;;;7.37;4.10;;;4.20;99.90;;;;;;5018702;28;20240;-78
2022/03/04 10:50:08;;;;;;;6.10;4.17;;;4.40;99.90;;;;;;5021353;28;20234;-80
2022/03/04 10:52:52;;;;;;;5.27;3.53;;;4.50;99.90;;;;;;5019903;28;20236;-79
2022/03/04 10:55:36;;;;;;;5.60;3.73;;;4.60;99.90;;;;;;5030350;28;20223;-78
2022/03/04 10:58:05;;;;;;;7.10;4.40;;;4.70;99.70;;;;;;5024513;28;20220;-79
2022/03/04 11:00:34;;;;;;;5.70;4.03;;;4.80;99.70;;;;;;5020664;28;20236;-79
2022/03/04 11:03:01;;;;;;;6.33;4.53;;;4.90;99.40;;;;;;5035807;28;20935;-79
2022/03/04 11:05:28;;;;;;;7.40;4.37;;;4.90;99.60;;;;;;5035119;28;20257;-79
2022/03/04 11:07:57;;;;;;;5.90;4.33;;;5.00;99.80;;;;;;5038911;28;20671;-79
2022/03/04 11:10:24;;;;;;;7.67;4.83;;;5.10;99.90;;;;;;5027741;28;20433;-79
2022/03/04 11:12:53;;;;;;;5.30;4.30;;;5.40;99.90;;;;;;5031894;28;20234;-79
2022/03/04 11:15:22;;;;;;;6.40;4.40;;;5.60;99.90;;;;;;5024394;28;20322;-79
2022/03/04 11:17:49;;;;;;;6.43;4.57;;;5.90;99.00;;;;;;5029356;28;20234;-79
2022/03/04 11:20:17;;;;;;;7.93;4.43;;;6.00;99.20;;;;;;5038874;28;20683;-80
2022/03/04 11:22:47;;;;;;;5.70;4.00;;;6.20;99.20;;;;;;5035220;28;20240;-80
2022/03/04 11:25:16;;;;;;;8.13;3.83;;;6.30;98.80;;;;;;5038235;28;20355;-79
2022/03/04 11:27:44;;;;;;;6.50;3.67;;;6.40;98.50;;;;;;5041838;28;20276;-79
2022/03/04 11:30:33;;;;;;;5.37;3.60;;;6.40;98.20;;;;;;5031260;28;20239;-79
2022/03/04 11:33:12;;;;;;;6.47;3.20;;;6.50;97.40;;;;;;5021946;28;20247;-79
2022/03/04 11:36:08;;;;;;;5.27;3.40;;;6.60;98.10;;;;;;5034589;28;20751;-79
2022/03/04 11:39:15;;;;;;;5.60;3.37;;;6.70;97.40;;;;;;5021668;28;20318;-79
2022/03/04 11:42:12;;;;;;;5.70;3.47;;;6.80;97.40;;;;;;5028011;28;20239;-79
2022/03/04 11:44:53;;;;;;;6.03;3.70;;;7.00;97.60;;;;;;5028691;28;20426;-79
2022/03/04 11:47:20;;;;;;;4.93;3.70;;;7.20;98.00;;;;;;5018726;28;20230;-79
2022/03/04 11:49:47;;;;;;;6.17;3.43;;;7.50;98.70;;;;;;5029744;28;20227;-79
2022/03/04 11:52:25;;;;;;;6.43;3.60;;;8.00;97.80;;;;;;5029049;28;20235;-79
2022/03/04 11:55:12;;;;;;;6.20;3.60;;;8.40;97.70;;;;;;5023003;28;20242;-79
2022/03/04 11:57:42;;;;;;;6.60;3.80;;;8.80;96.70;;;;;;5021683;28;20225;-81
2022/03/04 12:00:29;;;;;;;5.50;3.30;;;9.20;96.80;;;;;;5028562;28;20229;-79
2022/03/04 12:02:58;;;;;;;4.70;3.13;;;9.60;96.40;;;;;;5033887;28;20230;-79
2022/03/04 12:05:26;;;;;;;7.17;3.13;;;10.00;96.80;;;;;;5021748;28;20663;-79
2022/03/04 12:08:09;;;;;;;6.03;3.60;;;10.30;95.90;;;;;;5028261;28;20636;-79
2022/03/04 12:10:42;;;;;;;4.43;3.10;;;10.60;94.30;;;;;;5024361;28;20323;-81
2022/03/04 12:13:13;;;;;;;5.53;3.90;;;10.90;93.30;;;;;;5025051;28;20318;-79
2022/03/04 12:15:41;;;;;;;3.63;3.10;;;11.10;93.50;;;;;;5026422;28;20228;-79
2022/03/04 12:18:14;;;;;;;5.50;3.73;;;11.20;93.80;;;;;;5030060;28;20853;-78
2022/03/04 12:21:03;;;;;;;4.37;3.10;;;11.30;93.40;;;;;;5046388;28;20224;-78
2022/03/04 12:23:33;;;;;;;4.83;3.63;;;11.50;92.10;;;;;;5035946;28;20234;-78
2022/03/04 12:26:23;;;;;;;6.10;3.33;;;11.60;92.50;;;;;;5034443;28;20233;-78
2022/03/04 12:29:01;;;;;;;5.23;3.20;;;11.70;91.30;;;;;;5031568;28;20226;-79
2022/03/04 12:31:30;;;;;;;3.93;3.20;;;11.80;90.90;;;;;;5041446;28;20257;-79
2022/03/04 12:33:58;;;;;;;3.97;3.20;;;11.80;91.00;;;;;;5038055;28;20228;-79
2022/03/04 12:36:28;;;;;;;4.67;2.80;;;11.70;90.50;;;;;;5033806;28;20865;-78
2022/03/04 12:38:57;;;;;;;5.07;3.47;;;11.60;90.50;;;;;;5031626;28;20226;-78
2022/03/04 12:41:26;;;;;;;4.73;2.73;;;11.60;90.40;;;;;;5023763;28;25352;-78